createdAt,value
2022-11-27T00:02:14.469Z,100.00
2022-11-27T00:04:40.967Z,100.00
2022-11-27T00:07:07.319Z,100.00
2022-11-27T00:09:33.674Z,100.00
2022-11-27T00:12:00.009Z,100.00
2022-11-27T00:14:26.368Z,100.00
2022-11-27T00:16:52.728Z,100.00
2022-11-27T00:19:19.019Z,100.00
2022-11-27T00:21:45.423Z,100.00
2022-11-27T00:24:11.919Z,100.00
2022-11-27T00:26:38.592Z,100.00
2022-11-27T00:29:05.500Z,100.00
2022-11-27T00:31:32.823Z,100.00
2022-11-27T00:34:00.513Z,100.00
2022-11-27T00:36:27.940Z,100.00
2022-11-27T00:38:54.539Z,100.00
2022-11-27T00:41:22.072Z,100.00
2022-11-27T00:43:48.379Z,100.00
2022-11-27T00:46:22.674Z,100.00
2022-11-27T00:48:51.781Z,100.00
2022-11-27T00:51:19.228Z,100.00
2022-11-27T00:53:45.856Z,100.00
2022-11-27T00:56:17.164Z,100.00
2022-11-27T00:58:43.729Z,100.00
2022-11-27T01:01:15.856Z,100.00
2022-11-27T01:03:42.156Z,100.00
2022-11-27T01:06:08.515Z,100.00
2022-11-27T01:08:34.966Z,100.00
2022-11-27T01:11:01.867Z,100.00
2022-11-27T01:13:33.338Z,100.00
2022-11-27T01:16:00.785Z,100.00
2022-11-27T01:18:27.499Z,100.00
2022-11-27T01:20:54.142Z,100.00
2022-11-27T01:23:20.747Z,100.00
2022-11-27T01:25:50.465Z,100.00
2022-11-27T01:28:17.180Z,100.00
2022-11-27T01:30:43.504Z,100.00
2022-11-27T01:33:09.808Z,100.00
2022-11-27T01:35:36.194Z,100.00
2022-11-27T01:38:02.607Z,100.00
2022-11-27T01:40:28.974Z,100.00
2022-11-27T01:42:57.140Z,100.00
2022-11-27T01:45:23.529Z,100.00
2022-11-27T01:47:54.527Z,100.00
2022-11-27T01:50:23.357Z,100.00
2022-11-27T01:52:51.971Z,100.00
2022-11-27T01:55:27.552Z,100.00
2022-11-27T01:57:57.293Z,100.00
2022-11-27T02:00:24.637Z,100.00
2022-11-27T02:02:51.011Z,100.00
2022-11-27T02:05:19.006Z,100.00
2022-11-27T02:07:45.858Z,100.00
2022-11-27T02:10:12.653Z,100.00
2022-11-27T02:13:00.924Z,100.00
2022-11-27T02:15:37.593Z,100.00
2022-11-27T02:18:18.549Z,100.00
2022-11-27T02:20:44.926Z,100.00
2022-11-27T02:23:11.234Z,100.00
2022-11-27T02:25:37.559Z,100.00
2022-11-27T02:28:22.209Z,100.00
2022-11-27T02:31:03.220Z,100.00
2022-11-27T02:33:32.488Z,100.00
2022-11-27T02:36:07.772Z,100.00
2022-11-27T02:38:44.459Z,100.00
2022-11-27T02:41:10.717Z,100.00
2022-11-27T02:43:38.584Z,100.00
2022-11-27T02:46:06.274Z,100.00
2022-11-27T02:48:37.285Z,100.00
2022-11-27T02:51:05.431Z,100.00
2022-11-27T02:53:37.790Z,100.00
2022-11-27T02:56:10.218Z,100.00
2022-11-27T02:58:37.638Z,100.00
2022-11-27T03:01:05.804Z,100.00
2022-11-27T03:03:50.455Z,100.00
2022-11-27T03:06:29.919Z,100.00
2022-11-27T03:08:58.608Z,100.00
2022-11-27T03:11:26.769Z,100.00
2022-11-27T03:13:55.131Z,100.00
2022-11-27T03:16:29.093Z,100.00
2022-11-27T03:19:14.319Z,100.00
2022-11-27T03:21:42.567Z,100.00
2022-11-27T03:24:09.905Z,100.00
2022-11-27T03:26:36.661Z,100.00
2022-11-27T03:29:04.938Z,100.00
2022-11-27T03:31:31.440Z,100.00
2022-11-27T03:34:04.813Z,100.00
2022-11-27T03:36:31.174Z,100.00
2022-11-27T03:38:57.566Z,100.00
2022-11-27T03:41:35.004Z,100.00
2022-11-27T03:44:30.752Z,100.00
2022-11-27T03:47:03.145Z,100.00
2022-11-27T03:49:35.497Z,100.00
2022-11-27T03:52:15.923Z,100.00
2022-11-27T03:54:49.805Z,100.00
2022-11-27T03:57:26.801Z,100.00
2022-11-27T03:59:56.825Z,100.00
2022-11-27T04:02:45.033Z,100.00
2022-11-27T04:05:12.251Z,100.00
2022-11-27T04:07:41.309Z,100.00
2022-11-27T04:10:08.482Z,100.00
2022-11-27T04:12:34.917Z,100.00
2022-11-27T04:15:01.285Z,100.00
2022-11-27T04:17:27.986Z,100.00
2022-11-27T04:19:54.375Z,100.00
2022-11-27T04:22:20.710Z,100.00
2022-11-27T04:24:49.008Z,100.00
2022-11-27T04:27:15.378Z,100.00
2022-11-27T04:29:41.819Z,100.00
2022-11-27T04:32:08.169Z,100.00
2022-11-27T04:34:34.860Z,100.00
2022-11-27T04:37:01.224Z,100.00
2022-11-27T04:39:27.560Z,100.00
2022-11-27T04:41:53.962Z,100.00
2022-11-27T04:44:22.644Z,100.00
2022-11-27T04:46:49.641Z,100.00
2022-11-27T04:49:16.080Z,100.00
2022-11-27T04:51:42.457Z,100.00
2022-11-27T04:54:08.981Z,100.00
2022-11-27T04:56:35.288Z,100.00
2022-11-27T04:59:04.116Z,100.00
2022-11-27T05:01:30.480Z,100.00
2022-11-27T05:03:56.878Z,100.00
2022-11-27T05:06:23.268Z,100.00
2022-11-27T05:08:49.673Z,100.00
2022-11-27T05:11:17.387Z,100.00
2022-11-27T05:13:44.227Z,100.00
2022-11-27T05:16:11.706Z,100.00
2022-11-27T05:18:38.154Z,100.00
2022-11-27T05:21:06.393Z,100.00
2022-11-27T05:23:33.187Z,100.00
2022-11-27T05:25:59.549Z,100.00
2022-11-27T05:28:27.016Z,100.00
2022-11-27T05:30:53.529Z,100.00
2022-11-27T05:33:19.870Z,100.00
2022-11-27T05:35:46.195Z,100.00
2022-11-27T05:38:12.930Z,100.00
2022-11-27T05:40:39.705Z,100.00
2022-11-27T05:43:06.017Z,100.00
2022-11-27T05:45:32.330Z,100.00
2022-11-27T05:47:58.648Z,100.00
2022-11-27T05:50:24.961Z,100.00
2022-11-27T05:52:51.317Z,100.00
2022-11-27T05:55:17.635Z,100.00
2022-11-27T05:57:43.946Z,100.00
2022-11-27T06:00:10.613Z,100.00
2022-11-27T06:02:37.091Z,100.00
2022-11-27T06:05:03.638Z,100.00
2022-11-27T06:07:31.094Z,100.00
2022-11-27T06:09:57.449Z,100.00
2022-11-27T06:12:23.769Z,100.00
2022-11-27T06:14:50.137Z,100.00
2022-11-27T06:17:16.660Z,100.00
2022-11-27T06:19:43.113Z,100.00
2022-11-27T06:22:09.433Z,100.00
2022-11-27T06:24:35.765Z,100.00
2022-11-27T06:27:02.125Z,100.00
2022-11-27T06:29:28.431Z,100.00
2022-11-27T06:31:54.876Z,100.00
2022-11-27T06:34:21.285Z,100.00
2022-11-27T06:36:47.654Z,100.00
2022-11-27T06:39:13.956Z,100.00
2022-11-27T06:41:40.323Z,100.00
2022-11-27T06:44:06.707Z,100.00
2022-11-27T06:46:33.099Z,100.00
2022-11-27T06:48:59.414Z,100.00
2022-11-27T06:51:27.272Z,100.00
2022-11-27T06:53:53.795Z,100.00
2022-11-27T06:56:21.712Z,100.00
2022-11-27T06:58:51.021Z,100.00
2022-11-27T07:01:17.626Z,100.00
2022-11-27T07:03:44.478Z,100.00
2022-11-27T07:06:11.903Z,100.00
2022-11-27T07:08:38.594Z,100.00
2022-11-27T07:11:09.311Z,100.00
2022-11-27T07:13:35.803Z,100.00
2022-11-27T07:16:03.370Z,100.00
2022-11-27T07:18:34.494Z,100.00
2022-11-27T07:21:00.822Z,100.00
2022-11-27T07:23:27.125Z,100.00
2022-11-27T07:25:53.452Z,100.00
2022-11-27T07:28:19.830Z,100.00
2022-11-27T07:33:56.839Z,100.00
2022-11-27T07:36:24.614Z,100.00
2022-11-27T07:38:51.555Z,100.00
2022-11-27T07:41:17.980Z,100.00
2022-11-27T07:43:44.952Z,100.00
2022-11-27T07:46:19.279Z,100.00
2022-11-27T07:48:46.052Z,100.00
2022-11-27T07:51:13.872Z,100.00
2022-11-27T07:53:40.631Z,100.00
2022-11-27T07:56:07.540Z,100.00
2022-11-27T07:58:34.249Z,100.00
2022-11-27T08:01:00.825Z,100.00
2022-11-27T08:03:27.356Z,100.00
2022-11-27T08:05:53.786Z,100.00
2022-11-27T08:08:20.188Z,100.00
2022-11-27T08:10:46.551Z,100.00
2022-11-27T08:13:12.954Z,100.00
2022-11-27T08:15:39.282Z,100.00
2022-11-27T08:18:05.673Z,100.00
2022-11-27T08:20:32.077Z,100.00
2022-11-27T08:23:03.225Z,100.00
2022-11-27T08:25:29.761Z,100.00
2022-11-27T08:27:56.166Z,100.00
2022-11-27T08:30:23.795Z,100.00
2022-11-27T08:32:50.291Z,100.00
2022-11-27T08:35:16.683Z,100.00
2022-11-27T08:37:43.204Z,100.00
2022-11-27T08:40:10.020Z,100.00
2022-11-27T08:42:36.431Z,100.00
2022-11-27T08:45:02.845Z,100.00
2022-11-27T08:47:29.306Z,100.00
2022-11-27T08:49:55.790Z,100.00
2022-11-27T08:52:22.443Z,100.00
2022-11-27T08:54:53.149Z,100.00
2022-11-27T08:57:22.615Z,100.00
2022-11-27T08:59:49.091Z,100.00
2022-11-27T09:02:15.515Z,100.00
2022-11-27T09:04:42.241Z,100.00
2022-11-27T09:07:11.056Z,100.00
2022-11-27T09:09:37.672Z,100.00
2022-11-27T09:12:04.351Z,100.00
2022-11-27T09:14:30.716Z,100.00
2022-11-27T09:16:57.100Z,100.00
2022-11-27T09:19:23.564Z,100.00
2022-11-27T09:21:50.078Z,100.00
2022-11-27T09:24:16.379Z,100.00
2022-11-27T09:26:44.704Z,100.00
2022-11-27T09:29:11.033Z,100.00
2022-11-27T09:31:37.385Z,100.00
2022-11-27T09:34:04.865Z,100.00
2022-11-27T09:36:31.270Z,100.00
2022-11-27T09:38:58.472Z,100.00
2022-11-27T09:41:43.724Z,100.00
2022-11-27T09:44:24.990Z,100.00
2022-11-27T09:46:51.830Z,100.00
2022-11-27T09:49:22.720Z,100.00
2022-11-27T09:51:53.807Z,100.00
2022-11-27T09:54:38.830Z,100.00
2022-11-27T09:57:05.892Z,100.00
2022-11-27T09:59:43.389Z,100.00
2022-11-27T10:02:16.116Z,100.00
2022-11-27T10:05:05.745Z,100.00
2022-11-27T10:07:35.318Z,100.00
2022-11-27T10:10:20.748Z,100.00
2022-11-27T10:13:07.016Z,100.00
2022-11-27T10:15:36.364Z,100.00
2022-11-27T10:18:02.788Z,100.00
2022-11-27T10:20:35.077Z,100.00
2022-11-27T10:23:18.301Z,100.00
2022-11-27T10:25:52.410Z,99.77
2022-11-27T10:28:37.937Z,99.95
2022-11-27T10:31:16.628Z,100.00
2022-11-27T10:34:01.439Z,100.00
2022-11-27T10:36:39.828Z,98.46
2022-11-27T10:39:12.263Z,96.91
2022-11-27T10:41:56.691Z,97.09
2022-11-27T10:44:23.174Z,96.82
2022-11-27T10:46:51.152Z,97.21
2022-11-27T10:49:19.237Z,97.18
2022-11-27T10:52:07.275Z,96.30
2022-11-27T10:54:37.433Z,95.23
2022-11-27T10:57:28.239Z,93.55
2022-11-27T11:00:10.188Z,91.73
2022-11-27T11:02:39.925Z,92.79
2022-11-27T11:08:06.864Z,96.16
2022-11-27T11:32:07.932Z,95.29
2022-11-27T11:34:34.427Z,92.09
2022-11-27T11:37:02.811Z,93.34
2022-11-27T11:39:30.409Z,93.30
2022-11-27T11:41:56.863Z,94.24
2022-11-27T11:44:29.802Z,90.28
2022-11-27T11:46:56.153Z,91.52
2022-11-27T11:49:22.446Z,89.78
2022-11-27T11:51:51.841Z,89.29
2022-11-27T11:54:31.511Z,91.57
2022-11-27T11:57:00.168Z,92.66
2022-11-27T11:59:39.572Z,91.24
2022-11-27T12:02:31.417Z,92.35
2022-11-27T12:05:06.136Z,90.34
2022-11-27T12:07:52.089Z,89.77
2022-11-27T12:10:31.176Z,92.27
2022-11-27T12:13:16.055Z,88.87
2022-11-27T12:15:52.329Z,89.84
2022-11-27T12:18:25.868Z,90.12
2022-11-27T12:21:01.003Z,90.14
2022-11-27T12:23:34.912Z,92.07
2022-11-27T12:26:07.191Z,94.21
2022-11-27T12:28:58.914Z,93.90
2022-11-27T12:31:58.338Z,93.85
2022-11-27T12:35:04.346Z,96.80
2022-11-27T12:37:50.580Z,96.46
2022-11-27T12:40:16.864Z,96.68
2022-11-27T12:43:02.189Z,97.25
2022-11-27T12:45:48.310Z,97.16
2022-11-27T12:48:18.158Z,99.90
2022-11-27T12:50:49.221Z,99.38
2022-11-27T12:53:24.773Z,97.34
2022-11-27T12:56:06.678Z,98.32
2022-11-27T12:58:36.815Z,95.30
2022-11-27T13:01:09.799Z,96.39
2022-11-27T13:03:42.113Z,97.77
2022-11-27T13:06:10.130Z,93.78
2022-11-27T13:08:52.553Z,92.27
2022-11-27T13:11:35.292Z,89.14
2022-11-27T13:14:07.273Z,93.24
2022-11-27T13:16:36.507Z,94.91
2022-11-27T13:19:12.323Z,94.50
2022-11-27T13:21:39.637Z,91.54
2022-11-27T13:24:06.364Z,92.46
2022-11-27T13:26:32.645Z,94.24
2022-11-27T13:29:05.304Z,93.61
2022-11-27T13:31:35.917Z,95.03
2022-11-27T13:34:10.236Z,97.42
2022-11-27T13:36:38.731Z,97.60
2022-11-27T13:39:05.726Z,95.86
2022-11-27T13:41:33.742Z,95.90
2022-11-27T13:44:00.760Z,97.61
2022-11-27T13:46:28.963Z,96.51
2022-11-27T13:49:00.625Z,96.24
2022-11-27T13:51:31.750Z,96.50
2022-11-27T13:54:07.510Z,96.94
2022-11-27T13:56:34.336Z,98.08
2022-11-27T13:59:00.674Z,98.19
2022-11-27T14:01:27.097Z,97.54
2022-11-27T14:03:53.517Z,96.91
2022-11-27T14:06:19.869Z,97.57
2022-11-27T14:08:50.961Z,97.35
2022-11-27T14:11:28.146Z,99.92
2022-11-27T14:13:54.541Z,100.00
2022-11-27T14:16:35.127Z,99.96
2022-11-27T14:19:03.498Z,100.00
2022-11-27T14:21:38.327Z,100.00
2022-11-27T14:24:23.663Z,100.00
2022-11-27T14:26:49.961Z,100.00
2022-11-27T14:29:16.290Z,100.00
2022-11-27T14:31:43.337Z,100.00
2022-11-27T14:34:25.179Z,100.00
2022-11-27T14:36:52.311Z,100.00
2022-11-27T14:39:23.488Z,100.00
2022-11-27T14:41:56.658Z,100.00
2022-11-27T14:44:22.970Z,100.00
2022-11-27T14:46:57.013Z,100.00
2022-11-27T14:49:28.283Z,100.00
2022-11-27T14:51:56.813Z,100.00
2022-11-27T14:54:31.788Z,100.00
2022-11-27T14:56:58.415Z,100.00
2022-11-27T14:59:25.345Z,100.00
2022-11-27T15:02:02.489Z,100.00
2022-11-27T15:04:33.267Z,100.00
2022-11-27T15:06:59.588Z,100.00
2022-11-27T15:09:43.409Z,100.00
2022-11-27T15:12:29.654Z,100.00
2022-11-27T15:14:58.245Z,100.00
2022-11-27T15:17:27.041Z,100.00
2022-11-27T15:19:54.002Z,100.00
2022-11-27T15:22:20.675Z,100.00
2022-11-27T15:24:57.645Z,100.00
2022-11-27T15:27:23.939Z,100.00
2022-11-27T15:29:50.335Z,100.00
2022-11-27T15:32:22.999Z,100.00
2022-11-27T15:34:49.976Z,100.00
2022-11-27T15:37:30.748Z,100.00
2022-11-27T15:39:58.292Z,100.00
2022-11-27T15:42:26.309Z,100.00
2022-11-27T15:44:53.577Z,100.00
2022-11-27T15:47:27.865Z,100.00
2022-11-27T15:49:54.646Z,100.00
2022-11-27T15:52:21.448Z,100.00
2022-11-27T15:54:47.834Z,100.00
2022-11-27T15:57:14.263Z,100.00
2022-11-27T15:59:40.716Z,100.00
2022-11-27T16:02:07.165Z,100.00
2022-11-27T16:04:33.807Z,100.00
2022-11-27T16:07:00.096Z,100.00
2022-11-27T16:09:26.451Z,100.00
2022-11-27T16:12:27.543Z,100.00
2022-11-27T16:14:53.919Z,100.00
2022-11-27T16:17:20.284Z,100.00
2022-11-27T16:19:46.611Z,100.00
2022-11-27T16:22:13.056Z,100.00
2022-11-27T16:24:40.309Z,100.00
2022-11-27T16:27:07.342Z,100.00
2022-11-27T16:29:33.780Z,100.00
2022-11-27T16:32:01.070Z,100.00
2022-11-27T16:34:27.568Z,100.00
2022-11-27T16:36:53.911Z,100.00
2022-11-27T16:39:26.417Z,100.00
2022-11-27T16:41:52.817Z,100.00
2022-11-27T16:44:19.209Z,100.00
2022-11-27T16:46:45.984Z,100.00
2022-11-27T16:49:12.960Z,100.00
2022-11-27T16:51:40.197Z,100.00
2022-11-27T16:54:08.575Z,100.00
2022-11-27T16:56:35.521Z,100.00
2022-11-27T16:59:03.339Z,100.00
2022-11-27T17:01:35.289Z,100.00
2022-11-27T17:04:03.688Z,100.00
2022-11-27T17:06:31.466Z,100.00
2022-11-27T17:08:58.871Z,100.00
2022-11-27T17:11:26.518Z,100.00
2022-11-27T17:13:54.894Z,100.00
2022-11-27T17:16:21.399Z,100.00
2022-11-27T17:18:47.856Z,100.00
2022-11-27T17:21:24.396Z,100.00
2022-11-27T17:23:51.183Z,100.00
2022-11-27T17:26:19.216Z,100.00
2022-11-27T17:28:46.030Z,100.00
2022-11-27T17:31:14.861Z,100.00
2022-11-27T17:33:41.567Z,100.00
2022-11-27T17:36:08.188Z,100.00
2022-11-27T17:38:34.618Z,100.00
2022-11-27T17:41:06.450Z,100.00
2022-11-27T17:43:33.225Z,100.00
2022-11-27T17:45:59.979Z,100.00
2022-11-27T17:48:27.037Z,100.00
2022-11-27T17:50:54.162Z,100.00
2022-11-27T17:53:20.494Z,100.00
2022-11-27T17:55:46.806Z,100.00
2022-11-27T17:58:13.307Z,100.00
2022-11-27T18:00:40.222Z,100.00
2022-11-27T18:03:07.564Z,100.00
2022-11-27T18:05:38.948Z,100.00
2022-11-27T18:08:05.963Z,100.00
2022-11-27T18:10:33.395Z,100.00
2022-11-27T18:12:59.828Z,100.00
2022-11-27T18:15:26.234Z,100.00
2022-11-27T18:17:52.620Z,100.00
2022-11-27T18:20:19.147Z,100.00
2022-11-27T18:22:45.578Z,100.00
2022-11-27T18:25:14.337Z,100.00
2022-11-27T18:27:41.549Z,100.00
2022-11-27T18:30:08.375Z,100.00
2022-11-27T18:32:38.406Z,100.00
2022-11-27T18:35:05.779Z,100.00
2022-11-27T18:37:34.047Z,100.00
2022-11-27T18:40:05.232Z,100.00
2022-11-27T18:42:55.484Z,100.00
2022-11-27T18:45:33.457Z,100.00
2022-11-27T18:48:12.096Z,100.00
2022-11-27T18:50:41.536Z,100.00
2022-11-27T18:53:08.035Z,100.00
2022-11-27T18:55:35.182Z,100.00
2022-11-27T18:58:01.847Z,100.00
2022-11-27T19:07:44.451Z,100.00
2022-11-27T19:10:59.841Z,100.00
2022-11-27T19:22:20.984Z,100.00
2022-11-27T19:24:53.306Z,100.00
2022-11-27T19:30:51.194Z,100.00
2022-11-27T19:34:13.325Z,100.00
2022-11-27T19:39:40.178Z,100.00
2022-11-27T19:42:11.832Z,100.00
2022-11-27T19:44:44.419Z,100.00
2022-11-27T19:47:23.545Z,100.00
2022-11-27T19:49:50.472Z,100.00
2022-11-27T19:52:44.185Z,100.00
2022-11-27T19:55:25.009Z,100.00
2022-11-27T20:01:05.319Z,100.00
2022-11-27T20:04:23.720Z,100.00
2022-11-27T20:07:27.233Z,100.00
2022-11-27T20:26:33.048Z,100.00
2022-11-27T20:29:27.546Z,100.00
2022-11-27T20:36:14.146Z,100.00
2022-11-27T20:38:55.212Z,100.00
2022-11-27T20:45:14.037Z,100.00
2022-11-27T20:48:21.803Z,100.00
2022-11-27T20:51:14.043Z,100.00
2022-11-27T21:03:18.428Z,100.00
2022-11-27T21:09:14.789Z,100.00
2022-11-27T21:12:01.898Z,100.00
2022-11-27T21:17:49.950Z,100.00
2022-11-27T21:23:30.473Z,100.00
2022-11-27T21:26:32.268Z,100.00
2022-11-27T21:29:03.808Z,100.00
2022-11-27T21:36:04.851Z,100.00
2022-11-27T21:39:09.979Z,100.00
2022-11-27T21:47:55.715Z,100.00
2022-11-27T21:50:20.800Z,100.00
2022-11-27T21:52:47.445Z,100.00
2022-11-27T21:55:13.855Z,100.00
2022-11-27T21:57:40.240Z,100.00
2022-11-27T22:00:06.954Z,100.00
2022-11-27T22:02:33.335Z,100.00
2022-11-27T22:04:59.693Z,100.00
2022-11-27T22:07:26.170Z,100.00
2022-11-27T22:09:52.490Z,100.00
2022-11-27T22:12:18.854Z,100.00
2022-11-27T22:14:45.238Z,100.00
2022-11-27T22:17:11.574Z,100.00
2022-11-27T22:19:42.268Z,100.00
2022-11-27T22:22:08.655Z,100.00
2022-11-27T22:24:35.066Z,100.00
2022-11-27T22:27:01.499Z,100.00
2022-11-27T22:29:27.882Z,100.00
2022-11-27T22:31:54.268Z,100.00
2022-11-27T22:34:20.607Z,100.00
2022-11-27T22:36:46.917Z,100.00
2022-11-27T22:39:13.246Z,100.00
2022-11-27T22:41:40.124Z,100.00
2022-11-27T22:44:11.086Z,100.00
2022-11-27T22:46:39.639Z,100.00
2022-11-27T22:49:06.499Z,100.00
2022-11-27T22:51:34.424Z,100.00
2022-11-27T22:54:01.445Z,100.00
2022-11-27T22:56:28.121Z,100.00
2022-11-27T22:59:11.419Z,100.00
2022-11-27T23:01:40.931Z,100.00
2022-11-27T23:04:07.541Z,100.00
2022-11-27T23:06:33.919Z,100.00
2022-11-27T23:09:00.306Z,100.00
2022-11-27T23:11:27.534Z,100.00
2022-11-27T23:13:54.917Z,100.00
2022-11-27T23:16:21.652Z,100.00
2022-11-27T23:18:48.454Z,100.00
2022-11-27T23:21:16.216Z,100.00
2022-11-27T23:23:43.289Z,100.00
2022-11-27T23:26:17.400Z,100.00
2022-11-27T23:28:44.890Z,100.00
2022-11-27T23:31:29.455Z,100.00
2022-11-27T23:33:56.643Z,100.00
2022-11-27T23:36:23.227Z,100.00
2022-11-27T23:38:49.775Z,100.00
2022-11-27T23:41:18.218Z,100.00
2022-11-27T23:43:44.706Z,100.00
2022-11-27T23:46:13.030Z,100.00
2022-11-27T23:48:39.438Z,100.00
2022-11-27T23:51:13.280Z,100.00
2022-11-27T23:53:39.907Z,100.00
2022-11-27T23:56:08.720Z,100.00
2022-11-27T23:58:35.433Z,100.00
